Time;durP1;ratioP1;P1;durP2;ratioP2;P2;SDS_P1;SDS_P2;PMS_P1;PMS_P2;Temp;Humidity;BMP_temperature;BMP_pressure;BME280_temperature;BME280_humidity;BME280_pressure;Samples;Min_cycle;Max_cycle;Signal;HPM_P1;HPM_P2
2021/05/05 00:00:34;;;;;;;0.73;0.30;;;7.10;99.90;;;;;;13091649;22;20034;-49
2021/05/05 00:05:35;;;;;;;1.85;0.80;;;7.10;99.90;;;;;;13087950;22;20017;-49
2021/05/05 00:10:35;;;;;;;1.83;0.50;;;7.10;99.90;;;;;;13087925;22;20091;-49
2021/05/05 00:15:36;;;;;;;3.35;0.50;;;7.10;99.90;;;;;;13089627;22;20397;-49
2021/05/05 00:20:37;;;;;;;1.75;0.30;;;7.10;99.90;;;;;;13088175;22;20019;-50
2021/05/05 00:25:37;;;;;;;3.25;1.02;;;7.10;99.90;;;;;;13092554;22;20352;-49
2021/05/05 00:30:38;;;;;;;2.00;0.70;;;6.90;99.90;;;;;;13087094;22;20207;-50
2021/05/05 00:35:39;;;;;;;0.32;0.13;;;6.70;99.90;;;;;;13086015;22;20015;-50
2021/05/05 00:40:39;;;;;;;1.88;1.35;;;6.60;99.90;;;;;;13093586;22;20469;-49
2021/05/05 00:45:40;;;;;;;1.10;0.22;;;6.50;99.90;;;;;;13094676;22;20089;-50
2021/05/05 00:50:41;;;;;;;1.63;0.55;;;6.40;99.90;;;;;;13094089;22;20102;-50
2021/05/05 00:55:41;;;;;;;1.13;0.25;;;6.40;99.90;;;;;;13097623;22;20370;-50
2021/05/05 01:00:44;;;;;;;1.85;0.30;;;6.30;99.90;;;;;;13091035;22;20089;-50
2021/05/05 01:05:45;;;;;;;0.60;0.25;;;6.30;99.90;;;;;;13084409;22;20064;-50
2021/05/05 01:10:46;;;;;;;1.02;0.35;;;6.30;99.90;;;;;;13065151;22;20151;-50
2021/05/05 01:15:47;;;;;;;6.68;0.68;;;6.40;99.90;;;;;;13094563;22;20014;-50
2021/05/05 01:20:48;;;;;;;5.53;0.47;;;6.30;99.90;;;;;;13090491;22;20241;-50
2021/05/05 01:25:49;;;;;;;3.03;0.98;;;6.40;99.90;;;;;;13093129;22;20504;-50
2021/05/05 01:30:50;;;;;;;0.40;0.20;;;6.40;99.90;;;;;;13090783;22;20003;-50
2021/05/05 01:35:51;;;;;;;3.00;0.75;;;6.50;99.90;;;;;;13089362;22;20011;-50
2021/05/05 01:40:52;;;;;;;8.73;0.75;;;6.40;99.90;;;;;;13095865;22;20393;-50
2021/05/05 01:45:52;;;;;;;4.38;0.85;;;6.30;99.90;;;;;;13093588;22;20367;-50
2021/05/05 01:50:53;;;;;;;0.95;0.40;;;6.30;99.90;;;;;;13091018;22;20017;-50
2021/05/05 01:55:54;;;;;;;2.17;0.22;;;6.20;99.90;;;;;;13095742;22;20010;-50
2021/05/05 02:00:54;;;;;;;1.88;0.80;;;6.10;99.90;;;;;;13089417;22;20289;-50
2021/05/05 02:05:55;;;;;;;2.30;0.68;;;6.30;99.90;;;;;;13089998;22;20046;-50
2021/05/05 02:10:56;;;;;;;6.55;1.05;;;6.40;99.90;;;;;;13093763;22;20030;-50
2021/05/05 02:15:56;;;;;;;6.32;2.25;;;6.40;99.90;;;;;;13094765;22;20010;-50
2021/05/05 02:20:57;;;;;;;3.92;0.63;;;6.40;99.90;;;;;;13093606;22;20014;-50
2021/05/05 02:25:58;;;;;;;4.57;0.57;;;6.40;99.90;;;;;;13093577;22;20010;-50
2021/05/05 02:30:59;;;;;;;1.52;0.63;;;6.40;99.90;;;;;;13090364;22;20007;-51
2021/05/05 02:36:00;;;;;;;1.38;0.60;;;6.40;99.90;;;;;;13090680;22;20054;-50
2021/05/05 02:41:00;;;;;;;2.10;0.60;;;6.40;99.90;;;;;;13090646;22;20010;-50
2021/05/05 02:46:01;;;;;;;5.28;1.52;;;6.50;99.90;;;;;;13092214;22;20507;-50
2021/05/05 02:51:02;;;;;;;1.95;0.52;;;6.40;99.90;;;;;;13093267;22;20003;-50
2021/05/05 02:56:03;;;;;;;1.95;0.98;;;6.40;99.90;;;;;;13093823;22;20835;-50
2021/05/05 03:01:04;;;;;;;0.75;0.32;;;6.40;99.90;;;;;;13091746;22;20014;-50
2021/05/05 03:06:05;;;;;;;1.58;0.32;;;6.20;99.90;;;;;;13090739;22;20299;-49
2021/05/05 03:11:05;;;;;;;1.33;0.28;;;6.20;99.90;;;;;;13094170;22;20019;-49
2021/05/05 03:16:06;;;;;;;0.30;0.20;;;6.10;99.90;;;;;;13092394;22;20326;-49
2021/05/05 03:21:07;;;;;;;4.00;0.35;;;6.00;99.90;;;;;;13091110;22;20022;-49
2021/05/05 03:26:07;;;;;;;4.15;0.80;;;6.10;99.90;;;;;;13096360;22;20014;-50
2021/05/05 03:31:08;;;;;;;1.88;0.85;;;6.20;99.90;;;;;;13087332;22;20078;-50
2021/05/05 03:36:09;;;;;;;1.08;0.50;;;6.10;99.90;;;;;;13089411;22;20426;-48
2021/05/05 03:41:10;;;;;;;2.30;0.40;;;6.00;99.90;;;;;;13092256;22;20038;-48
2021/05/05 03:46:11;;;;;;;1.58;0.70;;;5.90;99.90;;;;;;13095478;22;20086;-48
2021/05/05 03:51:12;;;;;;;1.40;0.30;;;6.00;99.90;;;;;;13092139;22;20041;-48
2021/05/05 03:56:13;;;;;;;2.97;0.50;;;6.00;99.90;;;;;;13085379;22;20017;-48
2021/05/05 04:01:13;;;;;;;4.25;0.60;;;5.80;99.90;;;;;;13087502;22;20010;-50
2021/05/05 04:06:14;;;;;;;0.65;0.35;;;5.90;99.90;;;;;;13086128;22;20485;-50
2021/05/05 04:11:15;;;;;;;1.35;0.63;;;5.90;99.90;;;;;;13082068;22;20314;-50
2021/05/05 04:16:15;;;;;;;6.07;0.88;;;6.00;99.90;;;;;;13084084;22;20045;-50
2021/05/05 04:21:17;;;;;;;3.47;0.30;;;6.20;99.90;;;;;;13085814;22;20021;-50
2021/05/05 04:26:18;;;;;;;0.65;0.43;;;6.30;99.90;;;;;;13088879;22;20444;-50
2021/05/05 04:31:19;;;;;;;1.48;0.32;;;6.30;99.90;;;;;;13089966;22;20015;-50
2021/05/05 04:36:20;;;;;;;6.63;0.35;;;6.20;99.90;;;;;;13091743;22;20011;-50
2021/05/05 04:41:21;;;;;;;1.52;0.25;;;6.10;99.90;;;;;;13085828;22;20081;-49
2021/05/05 04:46:22;;;;;;;0.80;0.28;;;6.00;99.90;;;;;;13090504;22;20422;-49
2021/05/05 04:51:22;;;;;;;0.77;0.25;;;5.90;99.90;;;;;;13089410;22;20076;-49
2021/05/05 04:56:23;;;;;;;0.77;0.40;;;6.00;99.90;;;;;;13089212;22;20003;-49
2021/05/05 05:01:23;;;;;;;3.35;0.20;;;6.10;99.90;;;;;;13087317;22;20686;-49
2021/05/05 05:06:24;;;;;;;2.88;0.40;;;6.20;99.90;;;;;;13089559;22;20002;-49
2021/05/05 05:11:25;;;;;;;1.77;0.57;;;6.30;99.90;;;;;;13085704;22;20463;-49
2021/05/05 05:16:26;;;;;;;9.55;0.63;;;6.50;99.90;;;;;;13088434;22;20011;-49
2021/05/05 05:21:26;;;;;;;2.28;0.22;;;6.50;99.90;;;;;;13091633;22;20110;-50
2021/05/05 05:26:27;;;;;;;1.63;0.35;;;6.50;99.90;;;;;;13094682;22;20007;-49
2021/05/05 05:31:28;;;;;;;0.20;0.10;;;6.40;99.90;;;;;;13094179;22;20068;-49
2021/05/05 05:36:29;;;;;;;1.83;1.02;;;6.30;99.90;;;;;;13093368;22;20029;-49
2021/05/05 05:41:30;;;;;;;5.05;0.63;;;6.50;99.90;;;;;;13090388;22;20478;-49
2021/05/05 05:46:30;;;;;;;1.58;0.40;;;6.80;99.90;;;;;;13088939;22;20090;-49
2021/05/05 05:51:32;;;;;;;0.80;0.30;;;6.90;99.90;;;;;;13090791;22;20014;-49
2021/05/05 05:56:33;;;;;;;4.05;0.82;;;6.90;99.90;;;;;;13088134;22;20511;-49
2021/05/05 06:01:34;;;;;;;3.17;0.38;;;6.90;99.90;;;;;;13089342;22;20137;-49
2021/05/05 06:06:34;;;;;;;0.73;0.20;;;7.00;99.90;;;;;;13092856;22;20015;-49
2021/05/05 06:11:35;;;;;;;0.32;0.17;;;7.10;99.90;;;;;;13093064;22;20051;-49
2021/05/05 06:16:35;;;;;;;1.42;0.40;;;7.20;99.90;;;;;;13091063;22;20113;-50
2021/05/05 06:21:36;;;;;;;3.85;0.47;;;7.40;99.90;;;;;;13092436;22;20505;-49
2021/05/05 06:26:37;;;;;;;0.93;0.38;;;7.50;99.90;;;;;;13091540;22;20454;-49
2021/05/05 06:31:38;;;;;;;2.03;0.50;;;7.70;99.90;;;;;;13087281;22;20638;-49
2021/05/05 06:36:39;;;;;;;3.28;0.30;;;7.70;99.90;;;;;;13092038;22;20003;-49
2021/05/05 06:41:40;;;;;;;11.52;0.80;;;7.80;99.90;;;;;;13088652;22;20242;-49
2021/05/05 06:46:44;;;;;;;0.70;0.25;;;7.90;99.90;;;;;;13081120;22;20018;-49
2021/05/05 06:51:45;;;;;;;1.13;0.28;;;8.00;99.90;;;;;;13063487;22;20110;-49
2021/05/05 06:56:45;;;;;;;0.80;0.55;;;8.10;99.90;;;;;;13087255;22;20139;-49
2021/05/05 07:01:46;;;;;;;3.00;0.55;;;8.20;99.90;;;;;;13084478;22;20010;-49
2021/05/05 07:06:47;;;;;;;1.13;0.30;;;8.20;99.90;;;;;;13053706;22;20062;-49
2021/05/05 07:11:48;;;;;;;3.58;0.77;;;8.30;99.90;;;;;;13054162;22;20027;-49
2021/05/05 07:16:48;;;;;;;2.83;0.32;;;8.30;99.90;;;;;;13064413;22;20393;-49
2021/05/05 07:21:49;;;;;;;2.08;0.32;;;8.00;99.90;;;;;;13069664;22;20015;-49
2021/05/05 07:26:50;;;;;;;2.15;0.45;;;8.00;99.90;;;;;;13065979;22;20498;-50
2021/05/05 07:31:50;;;;;;;5.53;0.35;;;8.20;99.90;;;;;;13058449;22;20015;-49
2021/05/05 07:36:54;;;;;;;6.57;0.55;;;8.60;99.90;;;;;;13089910;22;20102;-49
2021/05/05 07:47:06;;;;;;;5.47;0.50;;;8.70;99.90;;;;;;13085240;22;20011;-49
2021/05/05 07:52:07;;;;;;;0.70;0.22;;;8.40;99.90;;;;;;13069573;22;20511;-49
2021/05/05 07:57:08;;;;;;;1.38;0.10;;;8.40;99.90;;;;;;13081000;22;20014;-49
2021/05/05 08:02:08;;;;;;;1.33;0.30;;;8.70;99.90;;;;;;13081752;22;20409;-49
2021/05/05 08:07:09;;;;;;;1.80;0.45;;;8.80;99.90;;;;;;13087570;22;20392;-49
2021/05/05 08:12:11;;;;;;;2.70;1.33;;;9.00;99.90;;;;;;13080436;22;20027;-48
2021/05/05 08:17:12;;;;;;;3.35;0.40;;;9.10;99.90;;;;;;13090090;22;20046;-47
2021/05/05 08:22:13;;;;;;;0.45;0.20;;;8.70;99.90;;;;;;13085558;22;20034;-47
2021/05/05 08:27:13;;;;;;;0.45;0.10;;;8.50;99.90;;;;;;13088299;22;20013;-47
2021/05/05 08:32:15;;;;;;;1.25;0.28;;;8.60;99.90;;;;;;13080196;22;20505;-47
2021/05/05 08:37:15;;;;;;;1.67;0.47;;;9.10;99.90;;;;;;13095313;22;20308;-49
2021/05/05 08:42:19;;;;;;;4.03;0.30;;;8.80;99.90;;;;;;13089403;22;20294;-49
2021/05/05 08:47:20;;;;;;;2.58;0.50;;;8.50;99.90;;;;;;13089513;22;20454;-49
2021/05/05 08:52:21;;;;;;;7.45;0.60;;;8.60;99.90;;;;;;13082377;22;20025;-48
2021/05/05 08:57:22;;;;;;;0.28;0.10;;;9.30;99.90;;;;;;13090094;22;20102;-47
2021/05/05 09:02:22;;;;;;;1.05;0.30;;;9.70;99.90;;;;;;13076646;22;20011;-47
2021/05/05 09:07:32;;;;;;;0.20;0.10;;;9.30;99.90;;;;;;13094451;22;20018;-47
2021/05/05 09:12:36;;;;;;;6.07;0.63;;;9.10;99.90;;;;;;13081612;22;20038;-47
2021/05/05 09:28:15;;;;;;;3.20;0.35;;;10.10;99.90;;;;;;13024630;22;20421;-47
2021/05/05 09:33:32;;;;;;;0.95;0.52;;;9.90;99.90;;;;;;13063000;22;20564;-47
2021/05/05 09:38:51;;;;;;;2.40;0.32;;;9.00;99.90;;;;;;13093565;22;20384;-47
2021/05/05 09:43:57;;;;;;;1.75;0.40;;;8.50;99.90;;;;;;13091301;22;20019;-47
2021/05/05 09:49:26;;;;;;;0.50;0.10;;;8.60;99.90;;;;;;13085407;22;20261;-47
2021/05/05 09:54:31;;;;;;;3.73;0.67;;;9.80;99.90;;;;;;13080082;22;20390;-47
2021/05/05 09:59:36;;;;;;;3.95;0.45;;;10.30;99.90;;;;;;13090061;22;20015;-47
2021/05/05 10:04:36;;;;;;;7.85;1.48;;;10.50;99.90;;;;;;13077557;22;20083;-47
2021/05/05 10:09:37;;;;;;;4.57;0.50;;;10.20;99.90;;;;;;13088354;22;20152;-47
2021/05/05 10:14:38;;;;;;;0.95;0.43;;;9.90;99.90;;;;;;13076264;22;20015;-47
2021/05/05 10:19:40;;;;;;;4.70;0.93;;;9.90;99.90;;;;;;13089768;22;20140;-47
2021/05/05 10:24:52;;;;;;;1.13;0.43;;;10.60;99.90;;;;;;13087423;22;20454;-47
2021/05/05 10:29:55;;;;;;;1.33;0.40;;;10.70;99.90;;;;;;13088493;22;20068;-47
2021/05/05 10:34:57;;;;;;;2.95;0.82;;;10.70;99.90;;;;;;13083537;22;20436;-47
2021/05/05 10:40:17;;;;;;;5.63;0.65;;;11.30;99.90;;;;;;13088655;22;20368;-48
2021/05/05 10:45:29;;;;;;;2.42;0.63;;;11.50;99.90;;;;;;13090232;22;20087;-47
2021/05/05 10:50:50;;;;;;;2.63;0.45;;;11.30;99.90;;;;;;13091385;22;20080;-47
2021/05/05 10:55:54;;;;;;;7.13;0.77;;;11.40;99.90;;;;;;13082468;22;20434;-47
2021/05/05 11:01:03;;;;;;;0.55;0.30;;;11.60;99.90;;;;;;13075787;22;20015;-47
2021/05/05 11:06:29;;;;;;;9.55;0.80;;;11.60;99.90;;;;;;13086814;22;20121;-47
2021/05/05 11:11:37;;;;;;;1.38;0.38;;;11.60;99.90;;;;;;13092146;22;20089;-47
2021/05/05 11:17:09;;;;;;;4.00;1.02;;;11.20;99.90;;;;;;13088973;22;20126;-47
2021/05/05 11:22:19;;;;;;;1.55;0.35;;;11.50;99.90;;;;;;13086735;22;20069;-47
2021/05/05 11:27:55;;;;;;;3.40;0.68;;;11.60;99.90;;;;;;13094045;22;20053;-47
2021/05/05 11:32:57;;;;;;;3.60;0.63;;;11.60;99.90;;;;;;12975097;22;20473;-47
2021/05/05 11:38:19;;;;;;;2.65;0.57;;;11.10;99.90;;;;;;13086798;22;20068;-47
2021/05/05 11:43:21;;;;;;;4.88;0.70;;;11.00;99.90;;;;;;13090792;22;20406;-47
2021/05/05 11:48:30;;;;;;;4.32;0.95;;;10.90;99.90;;;;;;13093291;22;20356;-47
2021/05/05 11:53:33;;;;;;;5.18;0.63;;;11.00;99.90;;;;;;13094333;22;20015;-47
2021/05/05 11:58:36;;;;;;;2.80;0.52;;;11.70;99.90;;;;;;13092449;22;20069;-47
2021/05/05 12:03:36;;;;;;;1.40;0.28;;;12.40;99.90;;;;;;13094869;22;20058;-47
2021/05/05 12:08:37;;;;;;;4.70;0.47;;;12.50;99.90;;;;;;13093095;22;20052;-47
2021/05/05 12:13:42;;;;;;;1.17;0.50;;;12.90;99.90;;;;;;13092586;22;20019;-47
2021/05/05 12:18:45;;;;;;;1.02;0.40;;;13.40;99.90;;;;;;13092772;22;20022;-47
2021/05/05 12:23:48;;;;;;;0.50;0.25;;;14.60;99.90;;;;;;13091376;22;20476;-47
2021/05/05 12:28:50;;;;;;;2.20;0.45;;;14.40;99.90;;;;;;13094861;22;20015;-48
2021/05/05 12:33:51;;;;;;;3.25;0.82;;;14.90;99.90;;;;;;13097954;22;20019;-47
2021/05/05 12:39:00;;;;;;;1.27;0.40;;;14.80;99.90;;;;;;13096034;22;20023;-47
2021/05/05 12:44:01;;;;;;;7.20;0.70;;;13.10;99.90;;;;;;13098104;22;20026;-47
2021/05/05 12:49:02;;;;;;;3.53;0.60;;;11.80;99.90;;;;;;13096716;22;20015;-47
2021/05/05 12:54:05;;;;;;;5.40;0.85;;;11.90;99.90;;;;;;13098240;22;20014;-47
2021/05/05 12:59:06;;;;;;;8.00;1.23;;;11.50;99.90;;;;;;13095882;22;20007;-48
2021/05/05 13:04:07;;;;;;;2.58;0.77;;;11.70;99.90;;;;;;13097167;22;20461;-47
2021/05/05 13:09:22;;;;;;;3.42;0.90;;;10.80;99.90;;;;;;13098959;22;20022;-47
2021/05/05 13:15:16;;;;;;;1.60;0.30;;;11.80;99.90;;;;;;13096722;22;20076;-47
2021/05/05 13:30:46;;;;;;;2.45;1.25;;;14.00;99.90;;;;;;13095262;22;20093;-47
2021/05/05 13:35:49;;;;;;;1.23;0.50;;;13.00;99.90;;;;;;13097265;22;20052;-47
2021/05/05 13:41:01;;;;;;;1.38;0.38;;;12.30;99.90;;;;;;13095726;22;20109;-47
2021/05/05 13:51:10;;;;;;;1.80;0.60;;;12.90;99.90;;;;;;13094710;22;20606;-47
2021/05/05 13:56:11;;;;;;;1.08;0.30;;;12.80;99.90;;;;;;13062562;22;20736;-47
2021/05/05 14:01:12;;;;;;;3.15;0.25;;;12.50;99.90;;;;;;13085519;22;20015;-47
2021/05/05 14:06:14;;;;;;;2.33;0.45;;;12.70;99.90;;;;;;13093694;22;20010;-47
2021/05/05 14:11:15;;;;;;;1.80;0.40;;;12.60;99.90;;;;;;13091211;22;20007;-47
2021/05/05 14:16:18;;;;;;;3.25;0.43;;;12.50;99.90;;;;;;13083231;22;20007;-46
2021/05/05 14:21:19;;;;;;;1.65;0.43;;;12.70;99.90;;;;;;13092602;22;20011;-47
2021/05/05 14:26:20;;;;;;;1.73;0.35;;;12.70;99.90;;;;;;13093203;22;20014;-46
2021/05/05 14:31:20;;;;;;;4.40;0.75;;;12.30;99.90;;;;;;13089271;22;20014;-47
2021/05/05 14:36:21;;;;;;;1.50;0.40;;;12.10;99.90;;;;;;13079033;22;20506;-46
2021/05/05 14:41:25;;;;;;;1.73;0.30;;;11.60;99.90;;;;;;13087525;22;20023;-46
2021/05/05 14:51:26;;;;;;;0.47;0.30;;;11.20;99.90;;;;;;13090628;22;20464;-46
2021/05/05 14:56:27;;;;;;;3.30;0.38;;;11.80;99.90;;;;;;13075299;22;20053;-46
2021/05/05 15:01:28;;;;;;;2.47;0.30;;;11.60;99.90;;;;;;13086613;22;20417;-46
2021/05/05 15:06:31;;;;;;;2.10;0.68;;;11.70;99.90;;;;;;13082813;22;20050;-46
2021/05/05 15:12:34;;;;;;;1.00;0.40;;;11.90;99.90;;;;;;13087407;22;20512;-46
2021/05/05 15:38:25;;;;;;;0.55;0.20;;;11.30;99.90;;;;;;13080414;22;20068;-46
2021/05/05 15:48:27;;;;;;;1.38;0.43;;;11.30;99.90;;;;;;13079146;22;20033;-46
2021/05/05 15:53:33;;;;;;;3.38;0.55;;;11.20;99.90;;;;;;13083286;22;20284;-46
2021/05/05 15:58:36;;;;;;;3.15;0.85;;;11.20;99.90;;;;;;13080363;22;20015;-46
2021/05/05 16:19:47;;;;;;;0.52;0.30;;;11.20;99.90;;;;;;13077616;22;20230;-46
2021/05/05 17:01:23;;;;;;;0.80;0.50;;;10.40;99.90;;;;;;13082757;22;20434;-46
2021/05/05 17:12:04;;;;;;;0.77;0.30;;;10.20;99.90;;;;;;12887128;22;20392;-47
2021/05/05 17:17:12;;;;;;;4.93;0.85;;;10.20;99.90;;;;;;13038629;22;20006;-46
2021/05/05 17:22:18;;;;;;;11.38;1.95;;;10.00;99.90;;;;;;13091762;22;20010;-46
2021/05/05 17:27:32;;;;;;;1.92;0.52;;;9.90;99.90;;;;;;13088390;22;20333;-46
2021/05/05 17:43:49;;;;;;;0.90;0.38;;;9.80;99.90;;;;;;13074129;22;20022;-46
2021/05/05 17:48:58;;;;;;;1.80;0.38;;;9.70;99.90;;;;;;13075948;22;20019;-46
2021/05/05 18:20:33;;;;;;;1.33;0.93;;;9.20;99.90;;;;;;13079402;22;20015;-46
2021/05/05 18:30:35;;;;;;;0.47;0.20;;;9.00;99.90;;;;;;13077064;22;20019;-46
2021/05/05 18:35:36;;;;;;;0.90;0.30;;;8.80;99.90;;;;;;13074573;22;20465;-46
2021/05/05 18:40:54;;;;;;;1.15;0.47;;;8.70;99.90;;;;;;13073660;22;20011;-46
2021/05/05 19:43:42;;;;;;;0.47;0.30;;;7.90;99.90;;;;;;13088468;22;20211;-46
2021/05/05 19:45:42;;;;;;;1.25;0.60;;;7.80;99.90;;;;;;13083126;22;20030;-46
2021/05/05 20:33:02;;;;;;;3.13;0.40;;;7.70;99.90;;;;;;13090872;22;20089;-46
2021/05/05 21:10:45;;;;;;;1.85;0.25;;;7.60;99.90;;;;;;13062428;22;20476;-46
2021/05/05 21:38:23;;;;;;;0.77;0.30;;;7.20;99.90;;;;;;13094342;22;20033;-46
2021/05/05 23:22:56;;;;;;;2.08;0.60;;;5.60;99.90;;;;;;13091740;22;20074;-46
2021/05/05 23:38:14;;;;;;;1.67;0.63;;;5.50;99.90;;;;;;13089371;22;20354;-46
